Impacts TAF Board INFO
FOR SITUATIONAL AWARENESS. NOT TO BE USED FOR FLIGHT PLANNING PURPOSES.
IDs:

KPHX - Phoenix/Sky Harbor, AZ, US

Issued at 1141 UTC 19 Jan 2018
Updated at 1309 UTC 19 Jan 2018
Potential Impact None Slight Moderate High
Time<<20/14Z 20/15Z 20/16Z 20/17Z 20/18Z 20/19Z 20/20Z 20/21Z 20/22Z 20/23Z 21/00Z 21/01Z 21/02Z
Type PRVL PRVL PRVL PRVL
VIS >6 >6 >6 >6
CIG -- -- 70 70
Cover SCT SCT OVC OVC
FltCat VFR VFR VFR VFR
WX -- -- -- --
WDir 180 180 210 210
WSpd 6 6 13 13
WGst -- -- -- --

Raw TAF
KPHX 191141Z 1912/2018 10006KT P6SM SCT250
  FM192200 18006KT P6SM SCT250
  TEMPO 1923/2003 VRB05KT
  FM201600 21013KT P6SM BKN070 OVC100


METAR Board
Radar Display
Forecast Discussion

FOR SITUATIONAL AWARENESS. NOT TO BE USED FOR FLIGHT PLANNING PURPOSES.